sensor_id;sensor_type;location;lat;lon;timestamp;pressure;altitude;pressure_sealevel;temperature;humidity
53440;BME280;39333;47.044;15.080;2022-09-17T00:01:23;95523.28;;;13.98;78.94
53440;BME280;39333;47.044;15.080;2022-09-17T00:03:52;95534.72;;;13.98;78.41
53440;BME280;39333;47.044;15.080;2022-09-17T00:06:20;95527.00;;;13.97;78.22
53440;BME280;39333;47.044;15.080;2022-09-17T00:08:47;95513.75;;;13.92;78.14
53440;BME280;39333;47.044;15.080;2022-09-17T00:11:17;95519.81;;;13.97;77.71
53440;BME280;39333;47.044;15.080;2022-09-17T00:13:47;95510.22;;;13.96;77.86
53440;BME280;39333;47.044;15.080;2022-09-17T00:16:22;95508.66;;;13.95;78.38
53440;BME280;39333;47.044;15.080;2022-09-17T00:18:49;95500.38;;;13.97;77.97
53440;BME280;39333;47.044;15.080;2022-09-17T00:21:17;95502.84;;;13.88;77.78
53440;BME280;39333;47.044;15.080;2022-09-17T00:23:44;95508.50;;;13.82;78.34
53440;BME280;39333;47.044;15.080;2022-09-17T00:26:11;95484.19;;;13.59;79.67
53440;BME280;39333;47.044;15.080;2022-09-17T00:28:38;95491.13;;;13.55;79.57
53440;BME280;39333;47.044;15.080;2022-09-17T00:31:08;95475.25;;;13.40;79.64
53440;BME280;39333;47.044;15.080;2022-09-17T00:33:36;95485.63;;;13.42;79.32
53440;BME280;39333;47.044;15.080;2022-09-17T00:36:04;95492.56;;;13.43;79.21
53440;BME280;39333;47.044;15.080;2022-09-17T00:38:32;95497.28;;;13.51;78.87
53440;BME280;39333;47.044;15.080;2022-09-17T00:41:00;95484.84;;;13.41;78.82
53440;BME280;39333;47.044;15.080;2022-09-17T00:46:30;95458.56;;;13.29;79.22
53440;BME280;39333;47.044;15.080;2022-09-17T00:49:02;95455.84;;;13.35;78.91
53440;BME280;39333;47.044;15.080;2022-09-17T00:51:35;95454.22;;;13.44;78.45
53440;BME280;39333;47.044;15.080;2022-09-17T00:54:05;95458.13;;;13.51;77.48
53440;BME280;39333;47.044;15.080;2022-09-17T00:56:34;95441.91;;;13.48;77.27
53440;BME280;39333;47.044;15.080;2022-09-17T00:59:02;95452.13;;;13.36;77.80
53440;BME280;39333;47.044;15.080;2022-09-17T01:01:30;95458.34;;;13.21;78.02
53440;BME280;39333;47.044;15.080;2022-09-17T01:03:57;95469.28;;;13.19;78.31
53440;BME280;39333;47.044;15.080;2022-09-17T01:06:47;95473.97;;;13.32;78.39
53440;BME280;39333;47.044;15.080;2022-09-17T01:31:29;95449.31;;;13.17;77.71
53440;BME280;39333;47.044;15.080;2022-09-17T01:39:52;95432.78;;;12.76;78.45
53440;BME280;39333;47.044;15.080;2022-09-17T01:42:26;95431.56;;;12.58;78.80
53440;BME280;39333;47.044;15.080;2022-09-17T01:45:10;95425.69;;;12.61;79.18
53440;BME280;39333;47.044;15.080;2022-09-17T01:48:20;95417.31;;;12.83;79.34
53440;BME280;39333;47.044;15.080;2022-09-17T01:50:49;95419.59;;;13.00;78.73
53440;BME280;39333;47.044;15.080;2022-09-17T01:53:20;95431.28;;;13.04;77.94
53440;BME280;39333;47.044;15.080;2022-09-17T01:55:50;95439.25;;;13.09;77.78
53440;BME280;39333;47.044;15.080;2022-09-17T01:58:28;95444.03;;;13.12;77.10
53440;BME280;39333;47.044;15.080;2022-09-17T02:01:00;95456.53;;;13.11;77.27
53440;BME280;39333;47.044;15.080;2022-09-17T02:03:34;95468.53;;;13.09;78.30
53440;BME280;39333;47.044;15.080;2022-09-17T02:06:11;95472.53;;;13.06;78.02
53440;BME280;39333;47.044;15.080;2022-09-17T02:09:00;95491.94;;;13.12;77.43
53440;BME280;39333;47.044;15.080;2022-09-17T02:11:28;95484.47;;;13.14;77.46
53440;BME280;39333;47.044;15.080;2022-09-17T02:14:02;95479.94;;;13.14;76.72
53440;BME280;39333;47.044;15.080;2022-09-17T02:16:33;95480.50;;;13.11;76.43
53440;BME280;39333;47.044;15.080;2022-09-17T02:19:05;95473.81;;;13.14;76.47
53440;BME280;39333;47.044;15.080;2022-09-17T02:21:47;95455.22;;;13.09;76.54
53440;BME280;39333;47.044;15.080;2022-09-17T02:26:55;95455.75;;;13.11;76.84
53440;BME280;39333;47.044;15.080;2022-09-17T02:31:54;95451.50;;;13.05;76.31
53440;BME280;39333;47.044;15.080;2022-09-17T02:34:21;95449.38;;;13.07;76.61
53440;BME280;39333;47.044;15.080;2022-09-17T02:36:50;95431.81;;;13.06;76.58
53440;BME280;39333;47.044;15.080;2022-09-17T02:39:18;95425.44;;;13.02;76.64
53440;BME280;39333;47.044;15.080;2022-09-17T02:47:38;95426.59;;;12.90;77.67
53440;BME280;39333;47.044;15.080;2022-09-17T02:53:13;95413.00;;;12.97;77.39
53440;BME280;39333;47.044;15.080;2022-09-17T02:56:00;95408.22;;;12.94;77.64
53440;BME280;39333;47.044;15.080;2022-09-17T03:01:31;95386.09;;;12.99;76.89
53440;BME280;39333;47.044;15.080;2022-09-17T03:04:01;95367.50;;;12.99;76.45
53440;BME280;39333;47.044;15.080;2022-09-17T03:06:29;95370.41;;;12.97;76.62
53440;BME280;39333;47.044;15.080;2022-09-17T03:08:56;95364.56;;;12.95;76.63
53440;BME280;39333;47.044;15.080;2022-09-17T03:11:23;95385.88;;;12.95;76.27
53440;BME280;39333;47.044;15.080;2022-09-17T03:13:50;95376.13;;;12.80;76.68
53440;BME280;39333;47.044;15.080;2022-09-17T03:16:17;95387.78;;;12.84;76.86
53440;BME280;39333;47.044;15.080;2022-09-17T03:18:44;95389.88;;;12.87;76.58
53440;BME280;39333;47.044;15.080;2022-09-17T03:21:10;95403.69;;;12.94;76.22
53440;BME280;39333;47.044;15.080;2022-09-17T03:23:38;95389.38;;;12.85;76.76
53440;BME280;39333;47.044;15.080;2022-09-17T03:26:05;95397.88;;;12.87;76.66
53440;BME280;39333;47.044;15.080;2022-09-17T03:28:32;95405.94;;;12.77;76.81
53440;BME280;39333;47.044;15.080;2022-09-17T03:30:58;95410.44;;;12.82;77.15
53440;BME280;39333;47.044;15.080;2022-09-17T03:33:25;95401.59;;;12.86;76.88
53440;BME280;39333;47.044;15.080;2022-09-17T03:35:52;95402.66;;;12.90;76.38
53440;BME280;39333;47.044;15.080;2022-09-17T03:38:19;95403.31;;;12.67;76.69
53440;BME280;39333;47.044;15.080;2022-09-17T03:41:03;95414.00;;;12.62;77.25
53440;BME280;39333;47.044;15.080;2022-09-17T03:43:30;95410.22;;;12.68;77.36
53440;BME280;39333;47.044;15.080;2022-09-17T03:45:57;95418.97;;;12.74;76.48
53440;BME280;39333;47.044;15.080;2022-09-17T03:48:24;95427.75;;;12.69;77.02
53440;BME280;39333;47.044;15.080;2022-09-17T03:50:50;95429.69;;;12.58;77.39
53440;BME280;39333;47.044;15.080;2022-09-17T03:53:17;95418.78;;;12.55;77.16
53440;BME280;39333;47.044;15.080;2022-09-17T03:55:44;95426.44;;;12.67;77.40
53440;BME280;39333;47.044;15.080;2022-09-17T03:58:11;95421.09;;;12.72;77.21
53440;BME280;39333;47.044;15.080;2022-09-17T04:00:37;95418.72;;;12.70;77.01
53440;BME280;39333;47.044;15.080;2022-09-17T04:03:05;95430.94;;;12.76;76.95
53440;BME280;39333;47.044;15.080;2022-09-17T04:05:32;95427.22;;;12.72;76.78
53440;BME280;39333;47.044;15.080;2022-09-17T04:07:59;95415.25;;;12.75;76.77
53440;BME280;39333;47.044;15.080;2022-09-17T04:10:26;95383.88;;;12.72;76.82
53440;BME280;39333;47.044;15.080;2022-09-17T04:12:52;95366.13;;;12.57;77.10
53440;BME280;39333;47.044;15.080;2022-09-17T04:15:19;95369.56;;;12.63;77.42
53440;BME280;39333;47.044;15.080;2022-09-17T04:17:46;95386.25;;;12.73;77.35
53440;BME280;39333;47.044;15.080;2022-09-17T04:20:13;95394.03;;;12.65;76.74
53440;BME280;39333;47.044;15.080;2022-09-17T04:22:39;95405.22;;;12.56;77.28
53440;BME280;39333;47.044;15.080;2022-09-17T04:25:07;95413.47;;;12.55;77.25
53440;BME280;39333;47.044;15.080;2022-09-17T04:27:33;95408.97;;;12.50;77.10
53440;BME280;39333;47.044;15.080;2022-09-17T04:30:00;95382.63;;;12.54;76.97
53440;BME280;39333;47.044;15.080;2022-09-17T04:32:27;95370.47;;;12.48;77.18
53440;BME280;39333;47.044;15.080;2022-09-17T04:34:53;95403.09;;;12.53;77.31
53440;BME280;39333;47.044;15.080;2022-09-17T04:37:21;95428.63;;;12.59;76.98
53440;BME280;39333;47.044;15.080;2022-09-17T04:39:49;95440.31;;;12.64;76.69
53440;BME280;39333;47.044;15.080;2022-09-17T04:42:15;95429.41;;;12.60;76.59
53440;BME280;39333;47.044;15.080;2022-09-17T04:44:42;95422.00;;;12.52;76.67
53440;BME280;39333;47.044;15.080;2022-09-17T04:47:09;95428.91;;;12.53;76.66
53440;BME280;39333;47.044;15.080;2022-09-17T04:49:35;95422.84;;;12.42;77.28
53440;BME280;39333;47.044;15.080;2022-09-17T04:52:02;95422.56;;;12.44;77.31
53440;BME280;39333;47.044;15.080;2022-09-17T04:54:29;95432.66;;;12.47;77.32
53440;BME280;39333;47.044;15.080;2022-09-17T04:56:56;95427.88;;;12.49;77.15
53440;BME280;39333;47.044;15.080;2022-09-17T04:59:23;95437.66;;;12.58;76.76
53440;BME280;39333;47.044;15.080;2022-09-17T05:01:49;95408.97;;;12.50;76.59
53440;BME280;39333;47.044;15.080;2022-09-17T05:04:16;95399.69;;;12.48;76.67
53440;BME280;39333;47.044;15.080;2022-09-17T05:06:43;95394.41;;;12.43;76.71
53440;BME280;39333;47.044;15.080;2022-09-17T05:09:10;95388.28;;;12.42;77.24
53440;BME280;39333;47.044;15.080;2022-09-17T05:11:36;95378.44;;;12.48;77.05
53440;BME280;39333;47.044;15.080;2022-09-17T05:14:03;95386.88;;;12.55;76.87
53440;BME280;39333;47.044;15.080;2022-09-17T05:16:30;95399.38;;;12.54;77.33
53440;BME280;39333;47.044;15.080;2022-09-17T05:18:57;95390.88;;;12.52;77.08
53440;BME280;39333;47.044;15.080;2022-09-17T05:21:24;95400.19;;;12.55;77.13
53440;BME280;39333;47.044;15.080;2022-09-17T05:23:50;95407.63;;;12.58;76.77
53440;BME280;39333;47.044;15.080;2022-09-17T05:26:17;95414.25;;;12.60;76.78
53440;BME280;39333;47.044;15.080;2022-09-17T05:28:44;95427.81;;;12.64;76.89
53440;BME280;39333;47.044;15.080;2022-09-17T05:31:11;95400.19;;;12.55;76.67
53440;BME280;39333;47.044;15.080;2022-09-17T05:33:37;95393.84;;;12.46;76.48
53440;BME280;39333;47.044;15.080;2022-09-17T05:36:04;95388.81;;;12.39;76.78
53440;BME280;39333;47.044;15.080;2022-09-17T05:38:31;95401.84;;;12.41;77.01
53440;BME280;39333;47.044;15.080;2022-09-17T05:40:58;95399.19;;;12.46;76.91
53440;BME280;39333;47.044;15.080;2022-09-17T05:43:28;95408.22;;;12.40;77.13
53440;BME280;39333;47.044;15.080;2022-09-17T05:45:55;95414.34;;;12.40;76.94
53440;BME280;39333;47.044;15.080;2022-09-17T05:48:25;95415.13;;;12.41;77.44
53440;BME280;39333;47.044;15.080;2022-09-17T05:50:53;95419.38;;;12.42;77.41
53440;BME280;39333;47.044;15.080;2022-09-17T05:53:20;95415.91;;;12.46;77.38
53440;BME280;39333;47.044;15.080;2022-09-17T05:55:47;95399.44;;;12.44;76.90
53440;BME280;39333;47.044;15.080;2022-09-17T05:58:16;95392.53;;;12.43;77.32
53440;BME280;39333;47.044;15.080;2022-09-17T06:00:45;95398.13;;;12.47;77.37
53440;BME280;39333;47.044;15.080;2022-09-17T06:03:15;95395.00;;;12.24;78.33
53440;BME280;39333;47.044;15.080;2022-09-17T06:05:42;95388.34;;;12.27;78.05
53440;BME280;39333;47.044;15.080;2022-09-17T06:08:10;95369.97;;;12.36;77.70
53440;BME280;39333;47.044;15.080;2022-09-17T06:10:37;95366.47;;;12.45;77.66
53440;BME280;39333;47.044;15.080;2022-09-17T06:13:04;95369.41;;;12.44;77.06
53440;BME280;39333;47.044;15.080;2022-09-17T06:15:31;95378.38;;;12.53;77.51
53440;BME280;39333;47.044;15.080;2022-09-17T06:17:57;95375.72;;;12.58;76.88
53440;BME280;39333;47.044;15.080;2022-09-17T06:20:24;95403.63;;;12.60;76.32
53440;BME280;39333;47.044;15.080;2022-09-17T06:22:55;95417.25;;;12.49;76.83
53440;BME280;39333;47.044;15.080;2022-09-17T06:25:23;95419.09;;;12.48;77.06
53440;BME280;39333;47.044;15.080;2022-09-17T06:27:50;95418.59;;;12.36;77.40
53440;BME280;39333;47.044;15.080;2022-09-17T06:30:17;95405.63;;;12.24;77.93
53440;BME280;39333;47.044;15.080;2022-09-17T06:32:43;95394.00;;;12.10;79.53
53440;BME280;39333;47.044;15.080;2022-09-17T06:35:10;95405.16;;;12.12;79.61
53440;BME280;39333;47.044;15.080;2022-09-17T06:37:37;95412.00;;;12.23;79.04
53440;BME280;39333;47.044;15.080;2022-09-17T06:40:06;95418.88;;;12.35;78.30
53440;BME280;39333;47.044;15.080;2022-09-17T06:42:33;95428.22;;;12.22;78.75
53440;BME280;39333;47.044;15.080;2022-09-17T06:45:00;95426.41;;;12.17;79.50
53440;BME280;39333;47.044;15.080;2022-09-17T06:47:33;95433.28;;;12.29;78.98
53440;BME280;39333;47.044;15.080;2022-09-17T06:50:00;95445.19;;;12.36;78.61
53440;BME280;39333;47.044;15.080;2022-09-17T06:52:27;95454.75;;;12.42;78.01
53440;BME280;39333;47.044;15.080;2022-09-17T06:54:54;95443.84;;;12.44;77.79
53440;BME280;39333;47.044;15.080;2022-09-17T06:57:20;95440.66;;;12.42;77.17
53440;BME280;39333;47.044;15.080;2022-09-17T06:59:47;95440.66;;;12.47;77.84
53440;BME280;39333;47.044;15.080;2022-09-17T07:02:15;95441.38;;;12.57;77.52
53440;BME280;39333;47.044;15.080;2022-09-17T07:04:42;95433.16;;;12.59;77.19
53440;BME280;39333;47.044;15.080;2022-09-17T07:07:09;95415.84;;;12.61;76.83
53440;BME280;39333;47.044;15.080;2022-09-17T07:09:36;95406.84;;;12.52;77.38
53440;BME280;39333;47.044;15.080;2022-09-17T07:12:06;95399.78;;;12.22;79.08
53440;BME280;39333;47.044;15.080;2022-09-17T07:14:33;95407.50;;;12.24;78.84
53440;BME280;39333;47.044;15.080;2022-09-17T07:17:00;95430.88;;;12.32;78.77
53440;BME280;39333;47.044;15.080;2022-09-17T07:19:26;95431.38;;;12.34;78.28
53440;BME280;39333;47.044;15.080;2022-09-17T07:21:53;95444.34;;;12.51;78.44
53440;BME280;39333;47.044;15.080;2022-09-17T07:24:20;95442.72;;;12.55;77.56
53440;BME280;39333;47.044;15.080;2022-09-17T07:26:46;95459.19;;;12.62;77.49
53440;BME280;39333;47.044;15.080;2022-09-17T07:29:13;95467.94;;;12.68;77.52
53440;BME280;39333;47.044;15.080;2022-09-17T07:31:39;95470.31;;;12.69;77.28
53440;BME280;39333;47.044;15.080;2022-09-17T07:34:06;95462.59;;;12.73;76.83
53440;BME280;39333;47.044;15.080;2022-09-17T07:36:33;95475.09;;;12.72;76.43
53440;BME280;39333;47.044;15.080;2022-09-17T07:39:00;95477.22;;;12.75;77.15
53440;BME280;39333;47.044;15.080;2022-09-17T07:41:26;95474.00;;;12.78;77.16
53440;BME280;39333;47.044;15.080;2022-09-17T07:43:53;95480.13;;;12.79;76.97
53440;BME280;39333;47.044;15.080;2022-09-17T07:46:22;95481.19;;;12.78;76.72
53440;BME280;39333;47.044;15.080;2022-09-17T07:48:49;95476.66;;;12.78;77.00
53440;BME280;39333;47.044;15.080;2022-09-17T07:51:19;95469.50;;;12.79;76.95
53440;BME280;39333;47.044;15.080;2022-09-17T07:53:50;95475.00;;;12.87;77.40
53440;BME280;39333;47.044;15.080;2022-09-17T07:56:17;95481.38;;;12.91;77.26
53440;BME280;39333;47.044;15.080;2022-09-17T07:58:43;95482.72;;;12.89;77.35
53440;BME280;39333;47.044;15.080;2022-09-17T08:01:12;95481.94;;;12.88;76.67
53440;BME280;39333;47.044;15.080;2022-09-17T08:03:41;95480.31;;;12.92;76.69
53440;BME280;39333;47.044;15.080;2022-09-17T08:06:11;95473.66;;;12.95;76.69
53440;BME280;39333;47.044;15.080;2022-09-17T08:08:39;95471.75;;;13.01;76.42
53440;BME280;39333;47.044;15.080;2022-09-17T08:11:08;95473.91;;;12.99;76.56
53440;BME280;39333;47.044;15.080;2022-09-17T08:13:36;95473.38;;;12.96;75.71
53440;BME280;39333;47.044;15.080;2022-09-17T08:16:09;95476.06;;;12.96;76.71
53440;BME280;39333;47.044;15.080;2022-09-17T08:18:36;95495.44;;;13.02;76.07
53440;BME280;39333;47.044;15.080;2022-09-17T08:21:04;95515.38;;;13.00;76.30
53440;BME280;39333;47.044;15.080;2022-09-17T08:23:33;95532.47;;;12.88;76.89
53440;BME280;39333;47.044;15.080;2022-09-17T08:26:01;95544.16;;;12.92;77.35
53440;BME280;39333;47.044;15.080;2022-09-17T08:28:30;95551.09;;;12.93;76.84
53440;BME280;39333;47.044;15.080;2022-09-17T08:31:05;95552.16;;;12.87;77.14
53440;BME280;39333;47.044;15.080;2022-09-17T08:33:38;95547.91;;;12.91;76.63
53440;BME280;39333;47.044;15.080;2022-09-17T08:36:07;95542.56;;;12.91;76.50
53440;BME280;39333;47.044;15.080;2022-09-17T08:38:36;95533.53;;;12.98;76.40
53440;BME280;39333;47.044;15.080;2022-09-17T08:43:49;95518.56;;;13.02;75.79
53440;BME280;39333;47.044;15.080;2022-09-17T08:46:18;95505.03;;;12.98;75.68
53440;BME280;39333;47.044;15.080;2022-09-17T08:48:52;95508.00;;;12.86;76.66
53440;BME280;39333;47.044;15.080;2022-09-17T08:56:47;95530.63;;;12.84;77.30
53440;BME280;39333;47.044;15.080;2022-09-17T08:59:58;95527.41;;;12.92;76.83
53440;BME280;39333;47.044;15.080;2022-09-17T09:05:19;95527.63;;;13.01;76.58
53440;BME280;39333;47.044;15.080;2022-09-17T09:07:51;95511.38;;;13.02;76.61
53440;BME280;39333;47.044;15.080;2022-09-17T09:10:27;95514.56;;;13.04;76.47
53440;BME280;39333;47.044;15.080;2022-09-17T09:12:58;95516.97;;;13.06;76.47
53440;BME280;39333;47.044;15.080;2022-09-17T09:18:00;95519.09;;;13.09;76.80
53440;BME280;39333;47.044;15.080;2022-09-17T09:23:26;95514.81;;;13.08;76.74
53440;BME280;39333;47.044;15.080;2022-09-17T09:33:56;95506.53;;;13.19;75.80
53440;BME280;39333;47.044;15.080;2022-09-17T09:36:27;95496.44;;;13.16;75.39
53440;BME280;39333;47.044;15.080;2022-09-17T09:39:01;95496.13;;;13.23;75.71
53440;BME280;39333;47.044;15.080;2022-09-17T09:41:39;95486.53;;;13.27;74.19
53440;BME280;39333;47.044;15.080;2022-09-17T09:44:10;95475.25;;;13.40;73.88
53440;BME280;39333;47.044;15.080;2022-09-17T09:57:34;95428.13;;;13.75;72.49
53440;BME280;39333;47.044;15.080;2022-09-17T10:00:28;95421.59;;;13.86;72.49
53440;BME280;39333;47.044;15.080;2022-09-17T10:03:02;95428.41;;;13.97;71.65
53440;BME280;39333;47.044;15.080;2022-09-17T10:05:30;95447.03;;;14.02;71.65
53440;BME280;39333;47.044;15.080;2022-09-17T10:07:57;95446.19;;;14.07;71.59
53440;BME280;39333;47.044;15.080;2022-09-17T10:10:24;95453.34;;;14.11;70.66
53440;BME280;39333;47.044;15.080;2022-09-17T10:13:04;95454.34;;;14.15;69.70
53440;BME280;39333;47.044;15.080;2022-09-17T10:15:31;95453.75;;;14.23;70.06
53440;BME280;39333;47.044;15.080;2022-09-17T10:18:22;95446.69;;;14.32;70.85
53440;BME280;39333;47.044;15.080;2022-09-17T10:20:51;95440.06;;;14.30;68.97
53440;BME280;39333;47.044;15.080;2022-09-17T10:23:20;95430.69;;;14.32;68.85
53440;BME280;39333;47.044;15.080;2022-09-17T10:25:48;95427.47;;;14.35;69.41
53440;BME280;39333;47.044;15.080;2022-09-17T10:28:44;95419.53;;;14.30;68.02
53440;BME280;39333;47.044;15.080;2022-09-17T10:31:12;95437.91;;;14.32;69.00
53440;BME280;39333;47.044;15.080;2022-09-17T10:34:02;95466.97;;;14.33;67.29
53440;BME280;39333;47.044;15.080;2022-09-17T10:44:34;95476.81;;;14.09;70.20
53440;BME280;39333;47.044;15.080;2022-09-17T10:47:04;95478.97;;;14.07;69.00
53440;BME280;39333;47.044;15.080;2022-09-17T10:49:56;95484.72;;;13.90;68.40
53440;BME280;39333;47.044;15.080;2022-09-17T10:52:40;95488.22;;;13.86;70.39
53440;BME280;39333;47.044;15.080;2022-09-17T10:55:30;95489.81;;;13.87;70.83
53440;BME280;39333;47.044;15.080;2022-09-17T11:06:39;95462.56;;;13.95;73.20
53440;BME280;39333;47.044;15.080;2022-09-17T11:12:01;95443.25;;;14.08;72.57
53440;BME280;39333;47.044;15.080;2022-09-17T11:18:04;95409.16;;;14.05;73.33
53440;BME280;39333;47.044;15.080;2022-09-17T11:23:26;95399.22;;;14.34;70.61
53440;BME280;39333;47.044;15.080;2022-09-17T11:25:58;95399.56;;;14.52;70.36
53440;BME280;39333;47.044;15.080;2022-09-17T11:37:24;95375.66;;;14.84;70.08
53440;BME280;39333;47.044;15.080;2022-09-17T11:42:50;95353.31;;;13.95;70.41
53440;BME280;39333;47.044;15.080;2022-09-17T11:45:29;95339.63;;;14.25;70.40
53440;BME280;39333;47.044;15.080;2022-09-17T11:50:48;95349.72;;;14.28;66.82
53440;BME280;39333;47.044;15.080;2022-09-17T11:53:42;95356.41;;;14.26;63.69
53440;BME280;39333;47.044;15.080;2022-09-17T11:59:19;95333.69;;;14.10;60.81
53440;BME280;39333;47.044;15.080;2022-09-17T12:02:01;95333.50;;;14.01;56.40
53440;BME280;39333;47.044;15.080;2022-09-17T12:07:45;95320.72;;;14.22;63.33
53440;BME280;39333;47.044;15.080;2022-09-17T12:15:54;95343.50;;;14.57;61.13
53440;BME280;39333;47.044;15.080;2022-09-17T12:21:47;95344.75;;;13.74;52.85
53440;BME280;39333;47.044;15.080;2022-09-17T12:24:23;95359.63;;;13.99;58.12
53440;BME280;39333;47.044;15.080;2022-09-17T12:35:48;95353.84;;;14.40;61.90
53440;BME280;39333;47.044;15.080;2022-09-17T12:39:00;95326.38;;;14.39;59.43
53440;BME280;39333;47.044;15.080;2022-09-17T12:55:19;95369.75;;;14.02;57.03
53440;BME280;39333;47.044;15.080;2022-09-17T13:00:27;95386.47;;;14.08;60.12
53440;BME280;39333;47.044;15.080;2022-09-17T13:03:18;95387.72;;;14.15;58.13
53440;BME280;39333;47.044;15.080;2022-09-17T13:20:39;95382.69;;;13.61;56.43
53440;BME280;39333;47.044;15.080;2022-09-17T13:23:06;95385.25;;;13.71;56.07
53440;BME280;39333;47.044;15.080;2022-09-17T13:25:48;95377.50;;;13.75;56.71
53440;BME280;39333;47.044;15.080;2022-09-17T13:28:16;95398.53;;;13.76;56.30
53440;BME280;39333;47.044;15.080;2022-09-17T13:30:59;95399.88;;;13.74;60.19
53440;BME280;39333;47.044;15.080;2022-09-17T13:33:55;95405.44;;;13.77;59.99
53440;BME280;39333;47.044;15.080;2022-09-17T13:39:01;95417.19;;;14.00;62.10
53440;BME280;39333;47.044;15.080;2022-09-17T13:41:29;95414.25;;;14.01;61.87
53440;BME280;39333;47.044;15.080;2022-09-17T13:43:58;95404.94;;;13.99;62.22
53440;BME280;39333;47.044;15.080;2022-09-17T13:46:26;95395.81;;;14.05;61.38
53440;BME280;39333;47.044;15.080;2022-09-17T13:48:58;95398.44;;;14.10;61.69
53440;BME280;39333;47.044;15.080;2022-09-17T13:53:57;95389.06;;;14.13;62.69
53440;BME280;39333;47.044;15.080;2022-09-17T13:56:37;95381.06;;;14.13;63.78
53440;BME280;39333;47.044;15.080;2022-09-17T13:59:14;95392.13;;;14.01;62.79
53440;BME280;39333;47.044;15.080;2022-09-17T14:23:53;95359.28;;;13.58;54.81
53440;BME280;39333;47.044;15.080;2022-09-17T14:32:12;95350.16;;;13.64;59.47
53440;BME280;39333;47.044;15.080;2022-09-17T14:34:41;95349.97;;;13.55;57.53
53440;BME280;39333;47.044;15.080;2022-09-17T14:37:14;95340.09;;;13.61;58.80
53440;BME280;39333;47.044;15.080;2022-09-17T14:39:42;95335.38;;;13.77;57.07
53440;BME280;39333;47.044;15.080;2022-09-17T14:42:15;95331.09;;;13.52;54.02
53440;BME280;39333;47.044;15.080;2022-09-17T14:45:05;95329.66;;;13.36;55.97
53440;BME280;39333;47.044;15.080;2022-09-17T14:47:36;95330.38;;;13.46;54.09
53440;BME280;39333;47.044;15.080;2022-09-17T14:50:35;95329.41;;;13.32;52.52
53440;BME280;39333;47.044;15.080;2022-09-17T14:53:06;95327.13;;;13.20;53.59
53440;BME280;39333;47.044;15.080;2022-09-17T14:55:39;95323.47;;;13.11;55.27
53440;BME280;39333;47.044;15.080;2022-09-17T14:58:25;95327.28;;;13.00;51.87
53440;BME280;39333;47.044;15.080;2022-09-17T15:00:53;95324.44;;;12.91;54.79
53440;BME280;39333;47.044;15.080;2022-09-17T15:03:22;95339.59;;;12.91;53.73
53440;BME280;39333;47.044;15.080;2022-09-17T15:05:49;95342.41;;;13.05;57.58
53440;BME280;39333;47.044;15.080;2022-09-17T15:08:22;95344.72;;;13.16;57.44
53440;BME280;39333;47.044;15.080;2022-09-17T15:11:01;95340.81;;;13.04;54.35
53440;BME280;39333;47.044;15.080;2022-09-17T15:13:36;95348.28;;;13.02;52.78
53440;BME280;39333;47.044;15.080;2022-09-17T15:16:22;95340.81;;;13.04;55.25
53440;BME280;39333;47.044;15.080;2022-09-17T15:18:53;95345.59;;;13.07;54.51
53440;BME280;39333;47.044;15.080;2022-09-17T15:23:58;95339.41;;;13.16;57.22
53440;BME280;39333;47.044;15.080;2022-09-17T15:26:32;95338.72;;;13.01;55.87
53440;BME280;39333;47.044;15.080;2022-09-17T15:29:01;95336.31;;;12.99;53.64
53440;BME280;39333;47.044;15.080;2022-09-17T15:31:29;95338.13;;;13.09;57.58
53440;BME280;39333;47.044;15.080;2022-09-17T15:33:59;95340.13;;;13.27;57.61
53440;BME280;39333;47.044;15.080;2022-09-17T15:36:27;95337.34;;;13.42;58.22
53440;BME280;39333;47.044;15.080;2022-09-17T15:38:55;95342.72;;;13.32;56.45
53440;BME280;39333;47.044;15.080;2022-09-17T15:41:34;95337.00;;;13.20;52.92
53440;BME280;39333;47.044;15.080;2022-09-17T15:44:22;95344.94;;;12.86;52.24
53440;BME280;39333;47.044;15.080;2022-09-17T15:50:12;95364.44;;;12.76;50.21
53440;BME280;39333;47.044;15.080;2022-09-17T15:52:40;95347.19;;;12.69;51.34
53440;BME280;39333;47.044;15.080;2022-09-17T15:55:33;95352.19;;;12.80;52.33
53440;BME280;39333;47.044;15.080;2022-09-17T15:58:04;95347.97;;;12.69;52.89
53440;BME280;39333;47.044;15.080;2022-09-17T16:00:31;95350.13;;;12.67;51.04
53440;BME280;39333;47.044;15.080;2022-09-17T16:05:57;95349.13;;;12.53;50.91
53440;BME280;39333;47.044;15.080;2022-09-17T16:08:33;95349.63;;;12.65;51.06
53440;BME280;39333;47.044;15.080;2022-09-17T16:11:00;95347.28;;;12.53;51.51
53440;BME280;39333;47.044;15.080;2022-09-17T16:13:27;95350.81;;;12.44;50.33
53440;BME280;39333;47.044;15.080;2022-09-17T16:15:54;95344.41;;;12.50;49.89
53440;BME280;39333;47.044;15.080;2022-09-17T16:18:20;95352.06;;;12.51;49.70
53440;BME280;39333;47.044;15.080;2022-09-17T16:20:47;95350.47;;;12.50;49.53
53440;BME280;39333;47.044;15.080;2022-09-17T16:23:14;95349.72;;;12.50;51.12
53440;BME280;39333;47.044;15.080;2022-09-17T16:25:41;95359.22;;;12.56;53.83
53440;BME280;39333;47.044;15.080;2022-09-17T16:28:11;95365.66;;;12.50;54.10
53440;BME280;39333;47.044;15.080;2022-09-17T16:30:44;95370.72;;;12.46;51.64
53440;BME280;39333;47.044;15.080;2022-09-17T16:33:15;95366.75;;;12.44;51.02
53440;BME280;39333;47.044;15.080;2022-09-17T16:35:42;95379.44;;;12.52;52.98
53440;BME280;39333;47.044;15.080;2022-09-17T16:38:09;95382.88;;;12.57;53.64
53440;BME280;39333;47.044;15.080;2022-09-17T16:40:45;95374.63;;;12.64;56.60
53440;BME280;39333;47.044;15.080;2022-09-17T16:43:15;95381.47;;;12.70;58.60
53440;BME280;39333;47.044;15.080;2022-09-17T16:45:41;95373.56;;;12.65;58.74
53440;BME280;39333;47.044;15.080;2022-09-17T16:48:08;95381.47;;;12.70;58.95
53440;BME280;39333;47.044;15.080;2022-09-17T16:50:38;95383.63;;;12.68;59.69